sensor_id;sensor_type;location;lat;lon;timestamp;P1;durP1;ratioP1;P2;durP2;ratioP2
75167;SDS011;63748;48.088;11.476;2023-04-15T00:01:23;2.33;;;1.63;;
75167;SDS011;63748;48.088;11.476;2023-04-15T00:03:50;2.22;;;1.30;;
75167;SDS011;63748;48.088;11.476;2023-04-15T00:06:17;2.33;;;1.30;;
75167;SDS011;63748;48.088;11.476;2023-04-15T00:08:44;3.22;;;1.63;;
75167;SDS011;63748;48.088;11.476;2023-04-15T00:11:10;2.50;;;1.23;;
75167;SDS011;63748;48.088;11.476;2023-04-15T00:13:36;2.92;;;1.80;;
75167;SDS011;63748;48.088;11.476;2023-04-15T00:16:03;3.40;;;1.50;;
75167;SDS011;63748;48.088;11.476;2023-04-15T00:18:30;4.97;;;1.55;;
75167;SDS011;63748;48.088;11.476;2023-04-15T00:20:56;2.30;;;1.23;;
75167;SDS011;63748;48.088;11.476;2023-04-15T00:23:23;2.53;;;1.38;;
75167;SDS011;63748;48.088;11.476;2023-04-15T00:25:50;2.90;;;1.42;;
75167;SDS011;63748;48.088;11.476;2023-04-15T00:28:16;2.33;;;1.23;;
75167;SDS011;63748;48.088;11.476;2023-04-15T00:30:42;2.72;;;1.02;;
75167;SDS011;63748;48.088;11.476;2023-04-15T00:33:09;4.50;;;1.33;;
75167;SDS011;63748;48.088;11.476;2023-04-15T00:35:35;2.95;;;1.55;;
75167;SDS011;63748;48.088;11.476;2023-04-15T00:38:02;5.38;;;1.50;;
75167;SDS011;63748;48.088;11.476;2023-04-15T00:40:29;3.47;;;1.30;;
75167;SDS011;63748;48.088;11.476;2023-04-15T00:42:55;6.85;;;1.88;;
75167;SDS011;63748;48.088;11.476;2023-04-15T00:45:21;2.03;;;1.63;;
75167;SDS011;63748;48.088;11.476;2023-04-15T00:47:48;4.03;;;1.85;;
75167;SDS011;63748;48.088;11.476;2023-04-15T00:50:14;2.97;;;1.45;;
75167;SDS011;63748;48.088;11.476;2023-04-15T00:52:40;1.92;;;1.60;;
75167;SDS011;63748;48.088;11.476;2023-04-15T00:55:08;5.97;;;1.77;;
75167;SDS011;63748;48.088;11.476;2023-04-15T00:57:34;2.47;;;1.30;;
75167;SDS011;63748;48.088;11.476;2023-04-15T01:00:00;4.57;;;1.80;;
75167;SDS011;63748;48.088;11.476;2023-04-15T01:02:28;2.50;;;1.23;;
75167;SDS011;63748;48.088;11.476;2023-04-15T01:04:56;2.72;;;1.65;;
75167;SDS011;63748;48.088;11.476;2023-04-15T01:07:22;4.82;;;1.85;;
75167;SDS011;63748;48.088;11.476;2023-04-15T01:09:48;3.33;;;1.33;;
75167;SDS011;63748;48.088;11.476;2023-04-15T01:12:14;5.40;;;2.15;;
75167;SDS011;63748;48.088;11.476;2023-04-15T01:14:42;3.00;;;1.80;;
75167;SDS011;63748;48.088;11.476;2023-04-15T01:17:08;3.45;;;1.90;;
75167;SDS011;63748;48.088;11.476;2023-04-15T01:19:37;5.03;;;1.65;;
75167;SDS011;63748;48.088;11.476;2023-04-15T01:22:04;2.42;;;1.55;;
75167;SDS011;63748;48.088;11.476;2023-04-15T01:24:33;2.97;;;1.73;;
75167;SDS011;63748;48.088;11.476;2023-04-15T01:27:00;3.38;;;1.98;;
75167;SDS011;63748;48.088;11.476;2023-04-15T01:29:27;6.88;;;1.48;;
75167;SDS011;63748;48.088;11.476;2023-04-15T01:31:54;6.25;;;2.05;;
75167;SDS011;63748;48.088;11.476;2023-04-15T01:34:20;3.10;;;1.70;;
75167;SDS011;63748;48.088;11.476;2023-04-15T01:36:47;3.05;;;1.15;;
75167;SDS011;63748;48.088;11.476;2023-04-15T01:39:13;3.58;;;1.92;;
75167;SDS011;63748;48.088;11.476;2023-04-15T01:41:39;3.28;;;1.33;;
75167;SDS011;63748;48.088;11.476;2023-04-15T01:44:06;3.72;;;1.83;;
75167;SDS011;63748;48.088;11.476;2023-04-15T01:46:33;4.50;;;2.10;;
75167;SDS011;63748;48.088;11.476;2023-04-15T01:48:59;3.08;;;1.83;;
75167;SDS011;63748;48.088;11.476;2023-04-15T01:51:25;2.88;;;1.52;;
75167;SDS011;63748;48.088;11.476;2023-04-15T01:53:51;3.63;;;2.10;;
75167;SDS011;63748;48.088;11.476;2023-04-15T01:56:20;3.72;;;1.63;;
75167;SDS011;63748;48.088;11.476;2023-04-15T01:58:48;4.13;;;2.13;;
75167;SDS011;63748;48.088;11.476;2023-04-15T02:01:15;4.57;;;1.90;;
75167;SDS011;63748;48.088;11.476;2023-04-15T02:03:43;5.80;;;1.48;;
75167;SDS011;63748;48.088;11.476;2023-04-15T02:06:09;3.38;;;1.60;;
75167;SDS011;63748;48.088;11.476;2023-04-15T02:08:36;3.88;;;1.67;;
75167;SDS011;63748;48.088;11.476;2023-04-15T02:11:02;3.13;;;1.60;;
75167;SDS011;63748;48.088;11.476;2023-04-15T02:13:28;2.47;;;1.50;;
75167;SDS011;63748;48.088;11.476;2023-04-15T02:15:55;4.90;;;1.63;;
75167;SDS011;63748;48.088;11.476;2023-04-15T02:18:21;3.45;;;1.58;;
75167;SDS011;63748;48.088;11.476;2023-04-15T02:20:49;2.53;;;1.25;;
75167;SDS011;63748;48.088;11.476;2023-04-15T02:23:16;2.78;;;1.50;;
75167;SDS011;63748;48.088;11.476;2023-04-15T02:25:42;5.30;;;2.03;;
75167;SDS011;63748;48.088;11.476;2023-04-15T02:28:08;2.65;;;1.45;;
75167;SDS011;63748;48.088;11.476;2023-04-15T02:30:34;4.88;;;1.52;;
75167;SDS011;63748;48.088;11.476;2023-04-15T02:33:00;3.28;;;1.45;;
75167;SDS011;63748;48.088;11.476;2023-04-15T02:35:27;4.13;;;1.77;;
75167;SDS011;63748;48.088;11.476;2023-04-15T02:37:53;3.10;;;1.38;;
75167;SDS011;63748;48.088;11.476;2023-04-15T02:40:19;4.72;;;1.67;;
75167;SDS011;63748;48.088;11.476;2023-04-15T02:42:45;4.82;;;1.50;;
75167;SDS011;63748;48.088;11.476;2023-04-15T02:45:11;2.45;;;1.50;;
75167;SDS011;63748;48.088;11.476;2023-04-15T02:47:37;3.10;;;1.80;;
75167;SDS011;63748;48.088;11.476;2023-04-15T02:50:10;3.97;;;1.42;;
75167;SDS011;63748;48.088;11.476;2023-04-15T02:52:40;3.95;;;1.60;;
75167;SDS011;63748;48.088;11.476;2023-04-15T02:55:07;5.18;;;1.42;;
75167;SDS011;63748;48.088;11.476;2023-04-15T02:57:33;4.97;;;1.60;;
75167;SDS011;63748;48.088;11.476;2023-04-15T03:00:02;4.88;;;1.83;;
75167;SDS011;63748;48.088;11.476;2023-04-15T03:02:32;4.20;;;1.60;;
75167;SDS011;63748;48.088;11.476;2023-04-15T03:04:59;3.63;;;2.00;;
75167;SDS011;63748;48.088;11.476;2023-04-15T03:07:25;3.90;;;1.77;;
75167;SDS011;63748;48.088;11.476;2023-04-15T03:09:51;3.75;;;1.50;;
75167;SDS011;63748;48.088;11.476;2023-04-15T03:12:17;2.00;;;1.27;;
75167;SDS011;63748;48.088;11.476;2023-04-15T03:14:43;6.55;;;2.00;;
75167;SDS011;63748;48.088;11.476;2023-04-15T03:17:09;2.40;;;1.27;;
75167;SDS011;63748;48.088;11.476;2023-04-15T03:19:36;3.88;;;1.42;;
75167;SDS011;63748;48.088;11.476;2023-04-15T03:22:02;3.45;;;1.73;;
75167;SDS011;63748;48.088;11.476;2023-04-15T03:24:28;4.10;;;1.60;;
75167;SDS011;63748;48.088;11.476;2023-04-15T03:26:54;3.78;;;1.83;;
75167;SDS011;63748;48.088;11.476;2023-04-15T03:29:21;2.78;;;1.63;;
75167;SDS011;63748;48.088;11.476;2023-04-15T03:31:47;2.90;;;1.95;;
75167;SDS011;63748;48.088;11.476;2023-04-15T03:34:14;2.90;;;1.05;;
75167;SDS011;63748;48.088;11.476;2023-04-15T03:36:40;2.63;;;1.58;;
75167;SDS011;63748;48.088;11.476;2023-04-15T03:39:06;2.95;;;1.50;;
75167;SDS011;63748;48.088;11.476;2023-04-15T03:41:32;3.65;;;1.52;;
75167;SDS011;63748;48.088;11.476;2023-04-15T03:43:58;2.78;;;1.33;;
75167;SDS011;63748;48.088;11.476;2023-04-15T03:46:25;3.00;;;1.33;;
75167;SDS011;63748;48.088;11.476;2023-04-15T03:48:51;2.80;;;1.27;;
75167;SDS011;63748;48.088;11.476;2023-04-15T03:51:17;2.17;;;1.33;;
75167;SDS011;63748;48.088;11.476;2023-04-15T03:53:43;4.43;;;1.45;;
75167;SDS011;63748;48.088;11.476;2023-04-15T03:56:09;3.05;;;1.17;;
75167;SDS011;63748;48.088;11.476;2023-04-15T03:58:35;4.20;;;1.52;;
75167;SDS011;63748;48.088;11.476;2023-04-15T04:01:01;4.13;;;1.35;;
75167;SDS011;63748;48.088;11.476;2023-04-15T04:03:27;2.05;;;1.65;;
75167;SDS011;63748;48.088;11.476;2023-04-15T04:05:53;2.08;;;1.30;;
75167;SDS011;63748;48.088;11.476;2023-04-15T04:08:19;3.28;;;1.30;;
75167;SDS011;63748;48.088;11.476;2023-04-15T04:10:46;1.95;;;1.45;;
75167;SDS011;63748;48.088;11.476;2023-04-15T04:13:12;3.83;;;1.65;;
75167;SDS011;63748;48.088;11.476;2023-04-15T04:15:38;3.72;;;1.38;;
75167;SDS011;63748;48.088;11.476;2023-04-15T04:18:04;4.43;;;1.48;;
75167;SDS011;63748;48.088;11.476;2023-04-15T04:20:30;2.03;;;1.10;;
75167;SDS011;63748;48.088;11.476;2023-04-15T04:22:56;3.75;;;1.25;;
75167;SDS011;63748;48.088;11.476;2023-04-15T04:25:22;2.33;;;1.20;;
75167;SDS011;63748;48.088;11.476;2023-04-15T04:27:49;3.42;;;1.58;;
75167;SDS011;63748;48.088;11.476;2023-04-15T04:30:15;1.80;;;1.05;;
75167;SDS011;63748;48.088;11.476;2023-04-15T04:32:41;3.13;;;1.33;;
75167;SDS011;63748;48.088;11.476;2023-04-15T04:35:08;3.58;;;1.42;;
75167;SDS011;63748;48.088;11.476;2023-04-15T04:37:35;2.08;;;1.13;;
75167;SDS011;63748;48.088;11.476;2023-04-15T04:40:01;2.88;;;1.35;;
75167;SDS011;63748;48.088;11.476;2023-04-15T04:42:27;6.18;;;1.75;;
75167;SDS011;63748;48.088;11.476;2023-04-15T04:44:54;4.18;;;1.83;;
75167;SDS011;63748;48.088;11.476;2023-04-15T04:47:20;2.17;;;0.93;;
75167;SDS011;63748;48.088;11.476;2023-04-15T04:49:46;4.13;;;1.48;;
75167;SDS011;63748;48.088;11.476;2023-04-15T04:52:12;3.40;;;1.40;;
75167;SDS011;63748;48.088;11.476;2023-04-15T04:54:38;2.15;;;1.30;;
75167;SDS011;63748;48.088;11.476;2023-04-15T04:57:05;2.50;;;1.52;;
75167;SDS011;63748;48.088;11.476;2023-04-15T04:59:32;5.65;;;1.55;;
75167;SDS011;63748;48.088;11.476;2023-04-15T05:01:58;4.78;;;1.35;;
75167;SDS011;63748;48.088;11.476;2023-04-15T05:04:24;2.13;;;1.10;;
75167;SDS011;63748;48.088;11.476;2023-04-15T05:06:50;3.67;;;1.45;;
75167;SDS011;63748;48.088;11.476;2023-04-15T05:09:16;1.88;;;1.30;;
75167;SDS011;63748;48.088;11.476;2023-04-15T05:11:43;4.72;;;1.42;;
75167;SDS011;63748;48.088;11.476;2023-04-15T05:14:09;1.63;;;1.30;;
75167;SDS011;63748;48.088;11.476;2023-04-15T05:16:35;1.88;;;1.13;;
75167;SDS011;63748;48.088;11.476;2023-04-15T05:19:01;2.40;;;1.20;;
75167;SDS011;63748;48.088;11.476;2023-04-15T05:21:27;4.13;;;1.42;;
75167;SDS011;63748;48.088;11.476;2023-04-15T05:23:53;1.38;;;0.95;;
75167;SDS011;63748;48.088;11.476;2023-04-15T05:26:19;1.90;;;1.00;;
75167;SDS011;63748;48.088;11.476;2023-04-15T05:28:46;1.55;;;1.08;;
75167;SDS011;63748;48.088;11.476;2023-04-15T05:31:12;2.08;;;1.15;;
75167;SDS011;63748;48.088;11.476;2023-04-15T05:33:38;3.80;;;1.20;;
75167;SDS011;63748;48.088;11.476;2023-04-15T05:36:05;1.70;;;1.17;;
75167;SDS011;63748;48.088;11.476;2023-04-15T05:38:31;4.10;;;1.63;;
75167;SDS011;63748;48.088;11.476;2023-04-15T05:40:57;1.95;;;1.38;;
75167;SDS011;63748;48.088;11.476;2023-04-15T05:43:23;3.25;;;1.33;;
75167;SDS011;63748;48.088;11.476;2023-04-15T05:45:49;2.72;;;1.45;;
75167;SDS011;63748;48.088;11.476;2023-04-15T05:48:16;4.75;;;1.48;;
75167;SDS011;63748;48.088;11.476;2023-04-15T05:50:42;3.17;;;1.15;;
75167;SDS011;63748;48.088;11.476;2023-04-15T05:53:08;3.58;;;1.00;;
75167;SDS011;63748;48.088;11.476;2023-04-15T05:55:34;4.18;;;1.10;;
75167;SDS011;63748;48.088;11.476;2023-04-15T05:58:00;4.45;;;1.00;;
75167;SDS011;63748;48.088;11.476;2023-04-15T06:00:27;4.45;;;1.05;;
75167;SDS011;63748;48.088;11.476;2023-04-15T06:02:54;3.65;;;1.20;;
75167;SDS011;63748;48.088;11.476;2023-04-15T06:05:21;1.48;;;1.10;;
75167;SDS011;63748;48.088;11.476;2023-04-15T06:07:48;2.10;;;1.20;;
75167;SDS011;63748;48.088;11.476;2023-04-15T06:10:14;2.35;;;0.93;;
75167;SDS011;63748;48.088;11.476;2023-04-15T06:12:40;2.22;;;0.98;;
75167;SDS011;63748;48.088;11.476;2023-04-15T06:15:06;2.55;;;0.88;;
75167;SDS011;63748;48.088;11.476;2023-04-15T06:17:34;2.40;;;1.10;;
75167;SDS011;63748;48.088;11.476;2023-04-15T06:20:01;2.13;;;1.10;;
75167;SDS011;63748;48.088;11.476;2023-04-15T06:22:27;1.92;;;1.00;;
75167;SDS011;63748;48.088;11.476;2023-04-15T06:24:53;1.40;;;0.93;;
75167;SDS011;63748;48.088;11.476;2023-04-15T06:27:19;3.38;;;0.93;;
75167;SDS011;63748;48.088;11.476;2023-04-15T06:29:45;2.42;;;1.00;;
75167;SDS011;63748;48.088;11.476;2023-04-15T06:32:11;1.27;;;0.88;;
75167;SDS011;63748;48.088;11.476;2023-04-15T06:34:37;3.88;;;1.00;;
75167;SDS011;63748;48.088;11.476;2023-04-15T06:37:03;1.98;;;0.98;;
75167;SDS011;63748;48.088;11.476;2023-04-15T06:39:30;1.00;;;0.75;;
75167;SDS011;63748;48.088;11.476;2023-04-15T06:41:56;0.90;;;0.60;;
75167;SDS011;63748;48.088;11.476;2023-04-15T06:44:22;1.17;;;0.80;;
75167;SDS011;63748;48.088;11.476;2023-04-15T06:46:48;2.72;;;0.77;;
75167;SDS011;63748;48.088;11.476;2023-04-15T06:49:14;2.50;;;0.80;;
75167;SDS011;63748;48.088;11.476;2023-04-15T06:51:41;2.50;;;0.73;;
75167;SDS011;63748;48.088;11.476;2023-04-15T06:54:07;3.25;;;0.73;;
75167;SDS011;63748;48.088;11.476;2023-04-15T06:56:33;1.75;;;0.90;;
75167;SDS011;63748;48.088;11.476;2023-04-15T06:58:59;2.60;;;0.88;;
75167;SDS011;63748;48.088;11.476;2023-04-15T07:01:26;1.92;;;0.95;;
75167;SDS011;63748;48.088;11.476;2023-04-15T07:03:52;2.50;;;1.00;;
75167;SDS011;63748;48.088;11.476;2023-04-15T07:06:18;2.28;;;0.80;;
75167;SDS011;63748;48.088;11.476;2023-04-15T07:08:44;1.08;;;0.88;;
75167;SDS011;63748;48.088;11.476;2023-04-15T07:11:10;1.58;;;0.88;;
75167;SDS011;63748;48.088;11.476;2023-04-15T07:13:36;1.40;;;0.63;;
75167;SDS011;63748;48.088;11.476;2023-04-15T07:16:02;1.60;;;0.90;;
75167;SDS011;63748;48.088;11.476;2023-04-15T07:18:28;2.45;;;0.88;;
75167;SDS011;63748;48.088;11.476;2023-04-15T07:20:54;1.23;;;0.70;;
75167;SDS011;63748;48.088;11.476;2023-04-15T07:23:21;2.03;;;0.80;;
75167;SDS011;63748;48.088;11.476;2023-04-15T07:25:47;1.40;;;1.20;;
75167;SDS011;63748;48.088;11.476;2023-04-15T07:28:13;2.83;;;0.90;;
75167;SDS011;63748;48.088;11.476;2023-04-15T07:30:40;1.17;;;0.98;;
75167;SDS011;63748;48.088;11.476;2023-04-15T07:33:06;2.28;;;0.90;;
75167;SDS011;63748;48.088;11.476;2023-04-15T07:35:32;2.33;;;0.70;;
75167;SDS011;63748;48.088;11.476;2023-04-15T07:37:58;3.20;;;0.85;;
75167;SDS011;63748;48.088;11.476;2023-04-15T07:40:24;3.00;;;1.02;;
75167;SDS011;63748;48.088;11.476;2023-04-15T07:42:51;3.78;;;1.00;;
75167;SDS011;63748;48.088;11.476;2023-04-15T07:45:17;1.70;;;0.68;;
75167;SDS011;63748;48.088;11.476;2023-04-15T07:47:43;1.27;;;1.15;;
75167;SDS011;63748;48.088;11.476;2023-04-15T07:50:09;2.10;;;1.00;;
75167;SDS011;63748;48.088;11.476;2023-04-15T07:52:35;3.28;;;0.90;;
75167;SDS011;63748;48.088;11.476;2023-04-15T07:55:05;2.58;;;0.90;;
75167;SDS011;63748;48.088;11.476;2023-04-15T07:57:34;1.98;;;0.90;;
75167;SDS011;63748;48.088;11.476;2023-04-15T08:00:01;5.38;;;1.25;;
75167;SDS011;63748;48.088;11.476;2023-04-15T08:02:29;1.83;;;0.95;;
75167;SDS011;63748;48.088;11.476;2023-04-15T08:04:55;1.50;;;1.02;;
75167;SDS011;63748;48.088;11.476;2023-04-15T08:07:22;2.25;;;0.90;;
75167;SDS011;63748;48.088;11.476;2023-04-15T08:09:48;2.47;;;1.05;;
75167;SDS011;63748;48.088;11.476;2023-04-15T08:12:14;5.82;;;1.40;;
75167;SDS011;63748;48.088;11.476;2023-04-15T08:14:40;3.47;;;1.13;;
75167;SDS011;63748;48.088;11.476;2023-04-15T08:17:06;1.95;;;0.98;;
75167;SDS011;63748;48.088;11.476;2023-04-15T08:19:32;1.70;;;1.10;;
75167;SDS011;63748;48.088;11.476;2023-04-15T08:21:58;2.72;;;1.15;;
75167;SDS011;63748;48.088;11.476;2023-04-15T08:24:24;4.00;;;1.35;;
75167;SDS011;63748;48.088;11.476;2023-04-15T08:26:51;2.40;;;1.02;;
75167;SDS011;63748;48.088;11.476;2023-04-15T08:29:17;3.03;;;1.70;;
75167;SDS011;63748;48.088;11.476;2023-04-15T08:31:43;1.58;;;0.88;;
75167;SDS011;63748;48.088;11.476;2023-04-15T08:34:10;1.25;;;0.90;;
75167;SDS011;63748;48.088;11.476;2023-04-15T08:36:36;1.70;;;1.08;;
75167;SDS011;63748;48.088;11.476;2023-04-15T08:39:02;1.35;;;0.85;;
75167;SDS011;63748;48.088;11.476;2023-04-15T08:41:31;4.63;;;1.10;;
75167;SDS011;63748;48.088;11.476;2023-04-15T08:44:03;3.85;;;1.33;;
75167;SDS011;63748;48.088;11.476;2023-04-15T08:46:32;2.85;;;1.10;;
75167;SDS011;63748;48.088;11.476;2023-04-15T08:48:59;3.42;;;1.40;;
75167;SDS011;63748;48.088;11.476;2023-04-15T08:51:25;2.47;;;1.52;;
75167;SDS011;63748;48.088;11.476;2023-04-15T08:53:52;1.63;;;1.25;;
75167;SDS011;63748;48.088;11.476;2023-04-15T08:56:19;2.75;;;0.95;;
75167;SDS011;63748;48.088;11.476;2023-04-15T08:58:49;2.03;;;1.08;;
75167;SDS011;63748;48.088;11.476;2023-04-15T09:01:16;3.00;;;1.25;;
75167;SDS011;63748;48.088;11.476;2023-04-15T09:03:42;1.65;;;1.30;;
75167;SDS011;63748;48.088;11.476;2023-04-15T09:06:08;1.88;;;0.80;;
75167;SDS011;63748;48.088;11.476;2023-04-15T09:08:34;3.45;;;1.17;;
75167;SDS011;63748;48.088;11.476;2023-04-15T09:11:01;3.90;;;1.25;;
75167;SDS011;63748;48.088;11.476;2023-04-15T09:13:27;2.90;;;1.10;;
75167;SDS011;63748;48.088;11.476;2023-04-15T09:15:54;1.60;;;0.95;;
75167;SDS011;63748;48.088;11.476;2023-04-15T09:18:28;4.05;;;2.30;;
75167;SDS011;63748;48.088;11.476;2023-04-15T09:20:54;2.97;;;1.80;;
75167;SDS011;63748;48.088;11.476;2023-04-15T09:23:21;4.57;;;1.90;;
75167;SDS011;63748;48.088;11.476;2023-04-15T09:25:47;1.52;;;1.23;;
75167;SDS011;63748;48.088;11.476;2023-04-15T09:28:14;2.13;;;1.58;;
75167;SDS011;63748;48.088;11.476;2023-04-15T09:30:41;3.45;;;1.38;;
75167;SDS011;63748;48.088;11.476;2023-04-15T09:33:13;3.03;;;1.50;;
75167;SDS011;63748;48.088;11.476;2023-04-15T09:35:39;7.97;;;1.48;;
75167;SDS011;63748;48.088;11.476;2023-04-15T09:38:06;2.75;;;1.55;;
75167;SDS011;63748;48.088;11.476;2023-04-15T09:43:02;3.60;;;1.33;;
75167;SDS011;63748;48.088;11.476;2023-04-15T09:45:29;1.40;;;0.80;;
75167;SDS011;63748;48.088;11.476;2023-04-15T09:47:59;3.58;;;1.67;;
75167;SDS011;63748;48.088;11.476;2023-04-15T09:50:28;4.35;;;1.35;;
75167;SDS011;63748;48.088;11.476;2023-04-15T09:52:54;2.65;;;1.45;;
75167;SDS011;63748;48.088;11.476;2023-04-15T09:55:20;2.28;;;1.40;;
75167;SDS011;63748;48.088;11.476;2023-04-15T09:57:46;3.83;;;1.90;;
75167;SDS011;63748;48.088;11.476;2023-04-15T10:00:13;3.88;;;1.63;;
75167;SDS011;63748;48.088;11.476;2023-04-15T10:02:39;4.18;;;1.73;;
75167;SDS011;63748;48.088;11.476;2023-04-15T10:05:13;2.47;;;1.50;;
75167;SDS011;63748;48.088;11.476;2023-04-15T10:07:39;3.17;;;1.67;;
75167;SDS011;63748;48.088;11.476;2023-04-15T10:10:05;2.53;;;1.83;;
75167;SDS011;63748;48.088;11.476;2023-04-15T10:12:32;2.17;;;1.30;;
75167;SDS011;63748;48.088;11.476;2023-04-15T10:14:58;3.67;;;2.00;;
75167;SDS011;63748;48.088;11.476;2023-04-15T10:17:26;4.22;;;1.85;;
75167;SDS011;63748;48.088;11.476;2023-04-15T10:20:02;2.67;;;1.70;;
75167;SDS011;63748;48.088;11.476;2023-04-15T10:22:29;2.42;;;1.05;;
75167;SDS011;63748;48.088;11.476;2023-04-15T10:24:55;3.72;;;1.50;;
75167;SDS011;63748;48.088;11.476;2023-04-15T10:27:22;4.25;;;1.75;;
75167;SDS011;63748;48.088;11.476;2023-04-15T10:29:49;3.70;;;2.38;;
75167;SDS011;63748;48.088;11.476;2023-04-15T10:32:19;3.75;;;1.83;;
75167;SDS011;63748;48.088;11.476;2023-04-15T10:34:46;4.97;;;2.88;;
75167;SDS011;63748;48.088;11.476;2023-04-15T10:37:18;4.20;;;1.90;;
75167;SDS011;63748;48.088;11.476;2023-04-15T10:39:45;3.92;;;1.90;;
75167;SDS011;63748;48.088;11.476;2023-04-15T10:42:11;6.85;;;2.33;;
75167;SDS011;63748;48.088;11.476;2023-04-15T10:44:41;4.03;;;2.10;;
75167;SDS011;63748;48.088;11.476;2023-04-15T10:47:11;3.05;;;1.83;;
75167;SDS011;63748;48.088;11.476;2023-04-15T10:49:41;3.70;;;2.22;;
75167;SDS011;63748;48.088;11.476;2023-04-15T10:52:09;5.75;;;2.50;;
75167;SDS011;63748;48.088;11.476;2023-04-15T10:54:36;3.50;;;2.50;;
75167;SDS011;63748;48.088;11.476;2023-04-15T10:59:30;3.85;;;2.25;;
75167;SDS011;63748;48.088;11.476;2023-04-15T11:02:00;2.97;;;2.15;;
75167;SDS011;63748;48.088;11.476;2023-04-15T11:07:10;3.22;;;2.00;;
75167;SDS011;63748;48.088;11.476;2023-04-15T11:09:36;4.75;;;2.08;;
75167;SDS011;63748;48.088;11.476;2023-04-15T11:14:33;6.32;;;2.75;;
75167;SDS011;63748;48.088;11.476;2023-04-15T11:17:02;4.70;;;1.92;;
75167;SDS011;63748;48.088;11.476;2023-04-15T11:19:35;3.63;;;1.95;;
75167;SDS011;63748;48.088;11.476;2023-04-15T11:22:09;3.95;;;2.10;;
75167;SDS011;63748;48.088;11.476;2023-04-15T11:24:35;5.43;;;2.33;;
75167;SDS011;63748;48.088;11.476;2023-04-15T11:27:01;3.38;;;2.20;;
75167;SDS011;63748;48.088;11.476;2023-04-15T11:29:28;3.88;;;1.90;;
75167;SDS011;63748;48.088;11.476;2023-04-15T11:32:08;3.58;;;1.92;;
75167;SDS011;63748;48.088;11.476;2023-04-15T11:34:34;3.75;;;2.08;;
75167;SDS011;63748;48.088;11.476;2023-04-15T11:37:06;4.68;;;2.17;;
75167;SDS011;63748;48.088;11.476;2023-04-15T11:39:33;4.00;;;2.20;;
75167;SDS011;63748;48.088;11.476;2023-04-15T11:41:59;3.95;;;2.35;;
75167;SDS011;63748;48.088;11.476;2023-04-15T11:44:25;2.90;;;2.03;;
75167;SDS011;63748;48.088;11.476;2023-04-15T11:46:51;4.82;;;1.60;;
75167;SDS011;63748;48.088;11.476;2023-04-15T11:49:30;4.70;;;1.83;;
75167;SDS011;63748;48.088;11.476;2023-04-15T11:51:58;5.20;;;1.83;;
75167;SDS011;63748;48.088;11.476;2023-04-15T11:54:25;3.40;;;2.20;;
75167;SDS011;63748;48.088;11.476;2023-04-15T11:56:51;4.28;;;2.20;;
75167;SDS011;63748;48.088;11.476;2023-04-15T11:59:18;5.28;;;2.78;;
75167;SDS011;63748;48.088;11.476;2023-04-15T12:01:45;4.00;;;2.15;;
75167;SDS011;63748;48.088;11.476;2023-04-15T12:04:15;3.35;;;1.83;;
75167;SDS011;63748;48.088;11.476;2023-04-15T12:06:44;2.35;;;1.83;;
75167;SDS011;63748;48.088;11.476;2023-04-15T12:16:41;3.92;;;2.20;;
75167;SDS011;63748;48.088;11.476;2023-04-15T12:19:08;5.15;;;3.35;;
75167;SDS011;63748;48.088;11.476;2023-04-15T12:21:36;6.05;;;2.90;;
75167;SDS011;63748;48.088;11.476;2023-04-15T12:24:03;7.15;;;3.15;;
75167;SDS011;63748;48.088;11.476;2023-04-15T12:29:09;7.30;;;3.00;;
75167;SDS011;63748;48.088;11.476;2023-04-15T12:31:35;4.60;;;2.67;;
75167;SDS011;63748;48.088;11.476;2023-04-15T12:34:02;3.85;;;2.20;;
75167;SDS011;63748;48.088;11.476;2023-04-15T12:36:29;4.88;;;2.05;;
75167;SDS011;63748;48.088;11.476;2023-04-15T12:39:03;5.25;;;2.55;;
75167;SDS011;63748;48.088;11.476;2023-04-15T12:41:30;2.22;;;1.73;;
75167;SDS011;63748;48.088;11.476;2023-04-15T12:43:56;4.60;;;2.53;;
75167;SDS011;63748;48.088;11.476;2023-04-15T12:46:22;3.83;;;1.80;;
75167;SDS011;63748;48.088;11.476;2023-04-15T12:48:49;4.65;;;2.58;;
75167;SDS011;63748;48.088;11.476;2023-04-15T12:51:16;3.28;;;1.80;;
75167;SDS011;63748;48.088;11.476;2023-04-15T12:53:42;3.55;;;1.98;;
75167;SDS011;63748;48.088;11.476;2023-04-15T12:56:08;4.57;;;1.90;;
75167;SDS011;63748;48.088;11.476;2023-04-15T12:58:34;4.72;;;1.88;;
75167;SDS011;63748;48.088;11.476;2023-04-15T13:01:01;3.13;;;1.50;;
75167;SDS011;63748;48.088;11.476;2023-04-15T13:03:27;3.67;;;1.70;;
75167;SDS011;63748;48.088;11.476;2023-04-15T13:05:53;3.47;;;2.10;;
75167;SDS011;63748;48.088;11.476;2023-04-15T13:08:19;3.17;;;1.67;;
75167;SDS011;63748;48.088;11.476;2023-04-15T13:10:45;3.70;;;2.08;;
75167;SDS011;63748;48.088;11.476;2023-04-15T13:13:11;2.47;;;1.83;;
75167;SDS011;63748;48.088;11.476;2023-04-15T13:15:38;4.18;;;1.60;;
75167;SDS011;63748;48.088;11.476;2023-04-15T13:18:05;4.93;;;1.80;;
75167;SDS011;63748;48.088;11.476;2023-04-15T13:20:31;2.45;;;1.20;;
75167;SDS011;63748;48.088;11.476;2023-04-15T13:22:57;5.72;;;1.52;;
75167;SDS011;63748;48.088;11.476;2023-04-15T13:25:23;2.75;;;2.15;;
75167;SDS011;63748;48.088;11.476;2023-04-15T13:27:50;4.07;;;1.45;;
75167;SDS011;63748;48.088;11.476;2023-04-15T13:30:16;4.68;;;1.95;;
75167;SDS011;63748;48.088;11.476;2023-04-15T13:32:42;4.63;;;1.85;;
75167;SDS011;63748;48.088;11.476;2023-04-15T13:35:08;4.45;;;1.77;;
75167;SDS011;63748;48.088;11.476;2023-04-15T13:37:34;2.90;;;1.85;;
75167;SDS011;63748;48.088;11.476;2023-04-15T13:40:00;2.35;;;1.70;;
75167;SDS011;63748;48.088;11.476;2023-04-15T13:42:27;2.20;;;1.40;;
75167;SDS011;63748;48.088;11.476;2023-04-15T13:44:53;2.28;;;1.70;;
75167;SDS011;63748;48.088;11.476;2023-04-15T13:47:19;1.63;;;1.13;;
75167;SDS011;63748;48.088;11.476;2023-04-15T13:49:46;2.83;;;2.15;;
75167;SDS011;63748;48.088;11.476;2023-04-15T13:52:12;3.05;;;2.13;;
75167;SDS011;63748;48.088;11.476;2023-04-15T13:54:38;2.95;;;1.83;;
75167;SDS011;63748;48.088;11.476;2023-04-15T13:57:04;3.30;;;2.17;;
75167;SDS011;63748;48.088;11.476;2023-04-15T13:59:34;2.50;;;1.70;;
75167;SDS011;63748;48.088;11.476;2023-04-15T14:02:00;3.33;;;1.60;;
75167;SDS011;63748;48.088;11.476;2023-04-15T14:04:26;4.40;;;1.98;;
75167;SDS011;63748;48.088;11.476;2023-04-15T14:06:52;5.68;;;2.00;;
75167;SDS011;63748;48.088;11.476;2023-04-15T14:09:18;3.40;;;2.40;;
75167;SDS011;63748;48.088;11.476;2023-04-15T14:11:46;3.90;;;2.30;;
75167;SDS011;63748;48.088;11.476;2023-04-15T14:14:12;3.47;;;2.05;;
75167;SDS011;63748;48.088;11.476;2023-04-15T14:16:38;4.45;;;2.47;;
75167;SDS011;63748;48.088;11.476;2023-04-15T14:19:04;5.18;;;2.42;;
75167;SDS011;63748;48.088;11.476;2023-04-15T14:21:30;3.95;;;2.60;;
75167;SDS011;63748;48.088;11.476;2023-04-15T14:23:57;5.13;;;2.10;;
75167;SDS011;63748;48.088;11.476;2023-04-15T14:26:23;4.00;;;2.25;;
75167;SDS011;63748;48.088;11.476;2023-04-15T14:28:50;2.85;;;2.13;;
75167;SDS011;63748;48.088;11.476;2023-04-15T14:31:18;3.13;;;2.22;;
75167;SDS011;63748;48.088;11.476;2023-04-15T14:33:44;4.22;;;2.33;;
75167;SDS011;63748;48.088;11.476;2023-04-15T14:36:10;3.28;;;1.67;;
75167;SDS011;63748;48.088;11.476;2023-04-15T14:38:36;2.88;;;1.90;;
75167;SDS011;63748;48.088;11.476;2023-04-15T14:41:04;3.88;;;2.08;;
75167;SDS011;63748;48.088;11.476;2023-04-15T14:43:30;6.03;;;2.58;;
75167;SDS011;63748;48.088;11.476;2023-04-15T14:45:57;4.35;;;1.80;;
75167;SDS011;63748;48.088;11.476;2023-04-15T14:48:23;2.65;;;1.85;;
75167;SDS011;63748;48.088;11.476;2023-04-15T14:50:49;6.15;;;2.33;;